Time;durP1;ratioP1;P1;durP2;ratioP2;P2;SDS_P1;SDS_P2;PMS_P1;PMS_P2;Temp;Humidity;BMP_temperature;BMP_pressure;BME280_temperature;BME280_humidity;BME280_pressure;Samples;Min_cycle;Max_cycle;Signal;HPM_P1;HPM_P2
2023/04/28 00:00:11;;;;;;;27.58;14.75;;;;;;;4.13;54.37;98932.72;5016654;28;20113;-71
2023/04/28 00:02:36;;;;;;;32.45;16.13;;;;;;;4.10;55.11;98930.47;4998798;28;20032;-71
2023/04/28 00:05:02;;;;;;;32.05;15.02;;;;;;;4.07;54.77;98925.53;5016314;28;20042;-71
2023/04/28 00:07:27;;;;;;;30.23;15.55;;;;;;;4.06;54.49;98929.31;5016335;28;20026;-72
2023/04/28 00:09:53;;;;;;;29.88;15.88;;;;;;;4.03;54.91;98924.34;5016291;28;20031;-71
2023/04/28 00:12:18;;;;;;;28.80;16.13;;;;;;;4.01;54.75;98924.63;5016302;28;20034;-71
2023/04/28 00:14:44;;;;;;;29.40;15.65;;;;;;;4.01;54.85;98921.06;5049171;28;20080;-71
2023/04/28 00:17:09;;;;;;;30.38;16.75;;;;;;;3.99;55.11;98924.03;5119846;28;20027;-71
2023/04/28 00:19:35;;;;;;;33.65;16.48;;;;;;;3.99;55.05;98920.47;5119668;28;20015;-72
2023/04/28 00:22:00;;;;;;;29.15;16.67;;;;;;;3.98;54.90;98916.13;5119711;28;20044;-71
2023/04/28 00:24:26;;;;;;;34.45;18.05;;;;;;;3.97;54.94;98922.59;5119265;28;20489;-72
2023/04/28 00:26:51;;;;;;;32.40;17.40;;;;;;;3.96;54.57;98916.38;5101366;28;20026;-72
2023/04/28 00:29:17;;;;;;;35.13;18.67;;;;;;;3.96;54.50;98920.94;5119282;28;20118;-69
2023/04/28 00:31:43;;;;;;;36.97;20.73;;;;;;;3.96;55.41;98919.09;5119387;28;20081;-70
2023/04/28 00:34:13;;;;;;;31.83;18.90;;;;;;;3.95;54.61;98914.72;5119559;28;20096;-70
2023/04/28 00:36:38;;;;;;;33.87;19.67;;;;;;;3.95;54.95;98914.72;5119695;28;20035;-70
2023/04/28 00:39:03;;;;;;;35.90;20.70;;;;;;;3.93;55.40;98916.84;5119592;28;20100;-69
2023/04/28 00:41:29;;;;;;;34.55;19.73;;;;;;;3.91;54.54;98918.13;5101286;28;20030;-69
2023/04/28 00:43:54;;;;;;;35.92;20.17;;;;;;;3.90;55.41;98911.06;5119777;28;20427;-70
2023/04/28 00:46:21;;;;;;;37.25;21.23;;;;;;;3.88;54.81;98919.47;5119488;28;20028;-70
2023/04/28 00:48:47;;;;;;;38.60;22.20;;;;;;;3.84;55.32;98907.44;5119373;28;20027;-70
2023/04/28 00:51:13;;;;;;;40.80;23.85;;;;;;;3.82;54.95;98904.97;5119220;28;20050;-70
2023/04/28 00:53:39;;;;;;;43.47;24.33;;;;;;;3.79;54.47;98907.31;5119494;28;20031;-70
2023/04/28 00:56:05;;;;;;;42.80;24.17;;;;;;;3.77;54.58;98913.00;5115234;28;20023;-70
2023/04/28 00:58:31;;;;;;;41.60;24.95;;;;;;;3.78;54.89;98911.09;5116109;28;20020;-69
2023/04/28 01:01:07;;;;;;;46.25;26.23;;;;;;;3.76;54.90;98922.22;5116075;28;20020;-70
2023/04/28 01:03:36;;;;;;;44.22;26.70;;;;;;;3.75;54.59;98909.72;5115906;28;20093;-69
2023/04/28 01:06:03;;;;;;;45.38;25.92;;;;;;;3.74;55.06;98905.34;5115978;28;20023;-70
2023/04/28 01:08:30;;;;;;;49.50;26.27;;;;;;;3.72;54.93;98919.13;5115670;28;20034;-69
2023/04/28 01:10:56;;;;;;;42.72;23.55;;;;;;;3.72;54.91;98921.03;5115895;28;20477;-70
2023/04/28 01:13:21;;;;;;;39.80;22.70;;;;;;;3.70;55.08;98926.69;5115912;28;20024;-70
2023/04/28 01:15:46;;;;;;;41.75;22.55;;;;;;;3.69;54.92;98918.81;5115813;28;20070;-70
2023/04/28 01:18:12;;;;;;;40.78;20.98;;;;;;;3.68;55.56;98919.88;5115814;28;20035;-70
2023/04/28 01:20:38;;;;;;;41.70;22.17;;;;;;;3.68;55.39;98919.88;5097399;28;20024;-70
2023/04/28 01:23:03;;;;;;;41.58;21.95;;;;;;;3.70;55.85;98915.03;5115955;28;20381;-70
2023/04/28 01:25:29;;;;;;;40.72;22.45;;;;;;;3.72;55.01;98921.84;5115504;28;20028;-70
2023/04/28 01:27:54;;;;;;;42.40;21.48;;;;;;;3.73;55.58;98912.66;5115500;28;20034;-70
2023/04/28 01:30:20;;;;;;;40.88;21.60;;;;;;;3.74;55.44;98908.06;5115565;28;20162;-70
2023/04/28 01:32:45;;;;;;;41.97;21.48;;;;;;;3.79;55.83;98908.16;5115650;28;20023;-70
2023/04/28 01:35:10;;;;;;;40.67;21.05;;;;;;;3.85;56.26;98914.50;5115448;28;20091;-70
2023/04/28 01:37:36;;;;;;;41.95;22.35;;;;;;;3.87;55.56;98913.19;5115478;28;20019;-70
2023/04/28 01:40:01;;;;;;;40.53;21.65;;;;;;;3.90;55.82;98908.34;5115213;28;20020;-70
2023/04/28 01:42:27;;;;;;;38.35;19.73;;;;;;;3.92;56.42;98914.34;5115202;28;20039;-69
2023/04/28 01:44:52;;;;;;;38.38;20.40;;;;;;;3.94;55.51;98912.22;5091373;28;20114;-70
2023/04/28 01:47:17;;;;;;;40.95;19.25;;;;;;;3.93;55.93;98910.59;5011690;28;20054;-70
2023/04/28 01:49:43;;;;;;;35.75;18.63;;;;;;;3.94;55.79;98912.22;5011615;28;20034;-70
2023/04/28 01:52:08;;;;;;;37.50;18.75;;;;;;;3.98;55.88;98911.53;5011729;28;20022;-70
2023/04/28 01:54:33;;;;;;;33.92;18.33;;;;;;;3.99;55.79;98918.59;5011621;28;20034;-70
2023/04/28 01:56:59;;;;;;;34.67;18.00;;;;;;;4.00;56.09;98914.81;5011826;28;20038;-70
2023/04/28 01:59:24;;;;;;;36.97;18.92;;;;;;;4.02;56.02;98914.56;5011608;28;20029;-70
2023/04/28 02:01:50;;;;;;;40.55;20.30;;;;;;;4.03;56.44;98913.50;5011642;28;20029;-70
2023/04/28 02:04:15;;;;;;;40.78;20.60;;;;;;;4.02;56.43;98911.84;4993755;28;20133;-70
2023/04/28 02:06:40;;;;;;;40.72;20.27;;;;;;;3.99;55.91;98912.34;5011404;28;20053;-71
2023/04/28 02:09:06;;;;;;;40.35;21.60;;;;;;;3.96;56.11;98910.94;5011373;28;20390;-70
2023/04/28 02:11:31;;;;;;;39.05;20.98;;;;;;;3.94;55.85;98914.94;5011422;28;20045;-70
2023/04/28 02:13:57;;;;;;;46.80;23.60;;;;;;;3.89;56.09;98915.69;5011219;28;20117;-70
2023/04/28 02:16:22;;;;;;;43.50;23.80;;;;;;;3.87;56.67;98906.94;4993856;28;20486;-70
2023/04/28 02:18:48;;;;;;;46.78;23.35;;;;;;;3.83;56.72;98911.22;5083403;28;20023;-70
2023/04/28 02:21:13;;;;;;;47.88;23.88;;;;;;;3.77;56.83;98902.16;5096230;28;20114;-70
2023/04/28 02:23:39;;;;;;;49.75;24.52;;;;;;;3.74;56.77;98905.34;5114464;28;20358;-70
2023/04/28 02:26:05;;;;;;;49.15;25.17;;;;;;;3.67;56.40;98899.22;5114516;28;20559;-70
2023/04/28 02:28:31;;;;;;;47.50;24.52;;;;;;;3.62;56.42;98899.13;5062128;28;20379;-70
2023/04/28 02:31:07;;;;;;;41.53;22.70;;;;;;;3.58;56.77;98891.47;5010436;28;20034;-70
2023/04/28 02:33:33;;;;;;;44.13;23.63;;;;;;;3.57;56.35;98900.66;5010555;28;20041;-69
2023/04/28 02:35:59;;;;;;;41.40;21.58;;;;;;;3.56;56.60;98895.47;5112532;28;20024;-70
2023/04/28 02:38:25;;;;;;;43.95;22.38;;;;;;;3.52;57.04;98892.41;5114229;28;20031;-70
2023/04/28 02:41:03;;;;;;;42.13;21.27;;;;;;;3.50;57.05;98886.41;5114285;28;20029;-70
2023/04/28 02:43:29;;;;;;;46.75;22.90;;;;;;;3.48;57.47;98890.44;5114195;28;20178;-70
2023/04/28 02:45:55;;;;;;;41.15;21.65;;;;;;;3.44;57.17;98887.38;5114068;28;20024;-70
2023/04/28 02:48:22;;;;;;;40.80;21.15;;;;;;;3.40;56.97;98886.22;5114089;28;20038;-71
2023/04/28 02:50:47;;;;;;;39.75;20.58;;;;;;;3.40;56.80;98894.34;5113840;28;20509;-70
2023/04/28 02:53:12;;;;;;;41.55;19.77;;;;;;;3.38;57.56;98891.03;5114016;28;20024;-70
2023/04/28 02:55:38;;;;;;;39.03;19.40;;;;;;;3.37;57.20;98886.69;5113630;28;20073;-70
2023/04/28 02:58:03;;;;;;;38.67;20.23;;;;;;;3.36;57.00;98898.59;5113955;28;20334;-71
2023/04/28 03:00:29;;;;;;;35.95;19.65;;;;;;;3.37;57.07;98898.34;5113639;28;20465;-70
2023/04/28 03:02:54;;;;;;;39.20;19.67;;;;;;;3.36;57.41;98893.97;5113676;28;20046;-71
2023/04/28 03:05:20;;;;;;;39.10;19.30;;;;;;;3.39;57.42;98898.13;5113666;28;20051;-69
2023/04/28 03:07:45;;;;;;;37.20;19.98;;;;;;;3.38;57.34;98897.28;5095436;28;20470;-70
2023/04/28 03:10:11;;;;;;;40.67;20.60;;;;;;;3.38;57.82;98891.03;5113264;28;20031;-70
2023/04/28 03:12:36;;;;;;;38.85;20.88;;;;;;;3.40;58.04;98897.06;5113731;28;20092;-70
2023/04/28 03:15:02;;;;;;;36.45;20.02;;;;;;;3.39;57.77;98888.09;5113537;28;20053;-70
2023/04/28 03:17:27;;;;;;;39.97;20.63;;;;;;;3.40;57.74;98897.88;5113177;28;20024;-70
2023/04/28 03:19:53;;;;;;;38.13;20.65;;;;;;;3.37;57.34;98887.50;5113581;28;20473;-70
2023/04/28 03:22:18;;;;;;;36.67;20.85;;;;;;;3.35;58.16;98889.63;5113694;28;20028;-70
2023/04/28 03:24:46;;;;;;;40.97;21.33;;;;;;;3.33;58.17;98893.63;5113637;28;20032;-71
2023/04/28 03:27:12;;;;;;;40.75;20.00;;;;;;;3.30;57.67;98889.50;5113292;28;20019;-70
2023/04/28 03:29:37;;;;;;;36.20;20.02;;;;;;;3.30;58.55;98889.50;5095435;28;20043;-70
2023/04/28 03:32:03;;;;;;;35.75;20.02;;;;;;;3.30;57.65;98885.97;5113541;28;20058;-69
2023/04/28 03:34:28;;;;;;;39.20;20.33;;;;;;;3.26;58.45;98881.03;5113357;28;20475;-70
2023/04/28 03:36:53;;;;;;;41.78;20.60;;;;;;;3.27;57.81;98879.13;5113341;28;20111;-70
2023/04/28 03:39:19;;;;;;;39.45;20.95;;;;;;;3.25;58.15;98876.66;5114024;28;20032;-68
2023/04/28 03:41:44;;;;;;;37.60;20.75;;;;;;;3.24;58.39;98868.78;5113287;28;20059;-68
2023/04/28 03:44:10;;;;;;;36.17;19.63;;;;;;;3.25;58.80;98875.88;5113366;28;20505;-68
2023/04/28 03:46:35;;;;;;;37.55;20.45;;;;;;;3.23;58.06;98876.09;5113303;28;20058;-68
2023/04/28 03:49:03;;;;;;;42.08;20.65;;;;;;;3.21;58.46;98875.50;5113298;28;20023;-68
2023/04/28 03:51:29;;;;;;;41.55;20.80;;;;;;;3.22;58.27;98874.44;5113264;28;20035;-68
2023/04/28 03:53:54;;;;;;;37.95;20.58;;;;;;;3.23;58.09;98873.38;5113552;28;20024;-69
2023/04/28 03:56:20;;;;;;;35.83;19.30;;;;;;;3.25;58.96;98876.66;5095007;28;20031;-70
2023/04/28 03:58:46;;;;;;;36.30;19.25;;;;;;;3.28;58.46;98878.91;5095122;28;20088;-70
2023/04/28 04:01:11;;;;;;;32.20;18.50;;;;;;;3.33;58.72;98874.66;5113098;28;20069;-70
2023/04/28 04:03:36;;;;;;;33.63;18.33;;;;;;;3.38;58.70;98883.72;5094613;28;20047;-70
2023/04/28 04:06:02;;;;;;;34.08;18.45;;;;;;;3.41;58.61;98882.44;5112908;28;20030;-69
2023/04/28 04:08:28;;;;;;;31.30;17.38;;;;;;;3.46;58.57;98884.41;5112961;28;20038;-69
2023/04/28 04:10:54;;;;;;;31.85;16.95;;;;;;;3.51;59.04;98885.34;5113023;28;20032;-70
2023/04/28 04:13:20;;;;;;;32.63;16.95;;;;;;;3.61;58.39;98889.34;5113298;28;20085;-70
2023/04/28 04:15:46;;;;;;;34.55;16.98;;;;;;;3.68;58.54;98893.53;5112958;28;20023;-70
2023/04/28 04:18:11;;;;;;;29.55;17.00;;;;;;;3.74;58.59;98889.06;5112635;28;20028;-70
2023/04/28 04:20:36;;;;;;;31.92;17.25;;;;;;;3.81;59.05;98895.19;5113082;28;20031;-70
2023/04/28 04:23:02;;;;;;;33.83;17.65;;;;;;;3.87;58.91;98891.47;5113112;28;20165;-70
2023/04/28 04:25:28;;;;;;;33.80;16.65;;;;;;;3.95;59.15;98898.44;5113062;28;20030;-69
2023/04/28 04:27:53;;;;;;;32.80;17.13;;;;;;;4.04;58.79;98901.56;5113028;28;20120;-70
2023/04/28 04:30:19;;;;;;;33.40;17.35;;;;;;;4.12;58.94;98898.47;5114174;28;20084;-70
2023/04/28 04:32:44;;;;;;;30.88;16.58;;;;;;;4.21;59.05;98898.91;5116922;28;20031;-69
2023/04/28 04:35:10;;;;;;;29.90;16.02;;;;;;;4.28;58.44;98899.59;4976214;28;20027;-69
2023/04/28 04:37:35;;;;;;;29.98;16.10;;;;;;;4.37;58.94;98900.00;4993557;28;20050;-69
2023/04/28 04:40:01;;;;;;;29.50;15.40;;;;;;;4.46;58.36;98912.13;4993481;28;20499;-70
2023/04/28 04:42:27;;;;;;;27.17;15.82;;;;;;;4.52;59.12;98910.31;4993499;28;20044;-70
2023/04/28 04:44:52;;;;;;;27.50;15.93;;;;;;;4.57;58.76;98902.25;4993430;28;20031;-70
2023/04/28 04:47:18;;;;;;;28.20;16.08;;;;;;;4.64;59.13;98912.97;4993458;28;20373;-70
2023/04/28 04:49:43;;;;;;;32.63;17.33;;;;;;;4.70;59.12;98905.72;4993217;28;20026;-70
2023/04/28 04:52:08;;;;;;;26.63;15.45;;;;;;;4.74;58.47;98909.59;4993324;28;20030;-69
2023/04/28 04:54:34;;;;;;;27.17;16.25;;;;;;;4.81;58.87;98904.81;5074862;28;20024;-71
2023/04/28 04:57:00;;;;;;;30.98;17.08;;;;;;;4.86;59.02;98904.06;5116668;28;20102;-70
2023/04/28 04:59:26;;;;;;;29.42;17.00;;;;;;;4.90;58.35;98897.88;5116491;28;20371;-70
2023/04/28 05:01:51;;;;;;;34.50;17.38;;;;;;;4.96;58.95;98893.38;5116276;28;20048;-70
2023/04/28 05:04:16;;;;;;;29.80;17.20;;;;;;;5.02;58.32;98895.09;5097791;28;20044;-70
2023/04/28 05:06:42;;;;;;;28.77;16.20;;;;;;;5.09;58.77;98894.91;5116205;28;20095;-70
2023/04/28 05:09:07;;;;;;;30.42;16.88;;;;;;;5.16;58.36;98898.28;5116058;28;20031;-69
2023/04/28 05:11:33;;;;;;;30.40;16.25;;;;;;;5.24;58.99;98891.56;5116151;28;20055;-69
2023/04/28 05:13:58;;;;;;;29.85;16.73;;;;;;;5.30;58.75;98893.31;5097559;28;20380;-69
2023/04/28 05:16:24;;;;;;;29.58;17.50;;;;;;;5.34;58.50;98893.63;5115974;28;20062;-69
2023/04/28 05:18:49;;;;;;;34.15;18.83;;;;;;;5.38;58.81;98888.50;5116013;28;20035;-69
2023/04/28 05:21:15;;;;;;;37.00;18.00;;;;;;;5.39;58.46;98884.72;5115852;28;20521;-70
2023/04/28 05:23:40;;;;;;;30.00;16.55;;;;;;;5.42;58.86;98879.59;5115927;28;20047;-70
2023/04/28 05:26:06;;;;;;;27.80;17.08;;;;;;;5.44;58.47;98888.31;5115869;28;20028;-70
2023/04/28 05:28:32;;;;;;;29.92;16.23;;;;;;;5.48;58.38;98886.75;5115770;28;20436;-70
2023/04/28 05:30:57;;;;;;;25.08;15.93;;;;;;;5.54;58.07;98893.06;5097306;28;20496;-70
2023/04/28 05:33:22;;;;;;;27.85;15.82;;;;;;;5.58;58.54;98891.47;5017235;28;20030;-69
2023/04/28 05:35:48;;;;;;;24.40;15.57;;;;;;;5.62;57.86;98892.63;5011272;28;20117;-69
2023/04/28 05:38:14;;;;;;;28.13;15.20;;;;;;;5.69;58.22;98889.72;5011997;28;20083;-69
2023/04/28 05:40:39;;;;;;;27.02;15.55;;;;;;;5.75;58.45;98885.16;5031089;28;20117;-70
2023/04/28 05:43:04;;;;;;;25.52;15.00;;;;;;;5.81;58.11;98884.97;5011836;28;20095;-69
2023/04/28 05:45:30;;;;;;;28.00;16.85;;;;;;;5.90;58.52;98892.69;5011941;28;20022;-70
2023/04/28 05:47:55;;;;;;;25.77;16.67;;;;;;;5.97;58.01;98893.31;5011763;28;20067;-69
2023/04/28 05:50:21;;;;;;;27.67;14.85;;;;;;;6.03;58.21;98891.50;5011571;28;20022;-70
2023/04/28 05:52:46;;;;;;;29.63;18.48;;;;;;;6.09;57.92;98898.66;5017434;28;20520;-69
2023/04/28 05:55:11;;;;;;;24.23;14.35;;;;;;;6.12;57.72;98887.25;5010114;28;20033;-69
2023/04/28 05:57:37;;;;;;;28.88;15.35;;;;;;;6.17;57.38;98892.75;5011620;28;20030;-68
2023/04/28 06:00:03;;;;;;;27.23;15.75;;;;;;;6.22;57.26;98890.06;5010890;28;20074;-69
2023/04/28 06:02:28;;;;;;;25.40;15.35;;;;;;;6.30;57.93;98894.22;5007062;28;20486;-69
2023/04/28 06:04:54;;;;;;;24.10;15.18;;;;;;;6.39;57.98;98889.97;5010148;28;20510;-70
2023/04/28 06:07:21;;;;;;;23.33;13.77;;;;;;;6.50;57.70;98893.59;5010104;28;20403;-69
2023/04/28 06:09:46;;;;;;;24.45;13.80;;;;;;;6.61;57.50;98891.78;5010607;28;20030;-69
2023/04/28 06:12:12;;;;;;;20.83;13.93;;;;;;;6.72;57.54;98886.41;5009296;28;20034;-69
2023/04/28 06:14:37;;;;;;;22.08;13.13;;;;;;;6.80;57.60;98881.31;4991555;28;20038;-70
2023/04/28 06:17:03;;;;;;;25.05;14.07;;;;;;;6.88;57.70;98890.09;5010108;28;20565;-70
2023/04/28 06:19:28;;;;;;;22.45;13.13;;;;;;;6.95;57.09;98886.03;5009571;28;20034;-68
2023/04/28 06:21:54;;;;;;;24.75;13.82;;;;;;;7.05;57.29;98887.22;5010468;28;20038;-68
2023/04/28 06:24:19;;;;;;;21.45;12.73;;;;;;;7.15;57.42;98879.09;4992062;28;20110;-68
2023/04/28 06:26:45;;;;;;;24.08;13.48;;;;;;;7.24;57.20;98885.72;5010127;28;20456;-70
2023/04/28 06:29:10;;;;;;;26.02;13.18;;;;;;;7.30;57.17;98878.34;4990899;28;20109;-67
2023/04/28 06:31:36;;;;;;;25.38;14.25;;;;;;;7.39;56.91;98884.13;5009997;28;20472;-69
2023/04/28 06:34:01;;;;;;;24.92;13.25;;;;;;;7.48;56.73;98874.34;5008934;28;20037;-69
2023/04/28 06:36:27;;;;;;;23.67;13.88;;;;;;;7.56;56.61;98870.28;5006129;28;20404;-69
2023/04/28 06:38:52;;;;;;;22.58;12.88;;;;;;;7.67;56.52;98873.91;5008069;28;20079;-69
2023/04/28 06:41:18;;;;;;;21.27;12.25;;;;;;;7.78;56.65;98874.75;5009416;28;20069;-69
2023/04/28 06:43:43;;;;;;;25.90;13.30;;;;;;;7.92;56.57;98880.53;5008858;28;20034;-69
2023/04/28 06:46:10;;;;;;;24.20;12.80;;;;;;;8.02;56.46;98875.91;5009736;28;20440;-70
2023/04/28 06:48:35;;;;;;;22.50;13.02;;;;;;;8.13;56.16;98874.06;5008990;28;20030;-69
2023/04/28 06:51:01;;;;;;;20.73;11.98;;;;;;;8.25;56.18;98867.50;5009323;28;20046;-69
2023/04/28 06:53:26;;;;;;;23.00;12.48;;;;;;;8.35;55.89;98868.31;5008017;28;20029;-70
2023/04/28 06:55:52;;;;;;;20.20;11.98;;;;;;;8.47;55.93;98859.88;5009803;28;20030;-70
2023/04/28 06:58:18;;;;;;;20.02;12.27;;;;;;;8.60;55.82;98871.38;5009111;28;20053;-71
2023/04/28 07:00:43;;;;;;;19.67;11.43;;;;;;;8.71;55.78;98861.28;5009434;28;20462;-70
2023/04/28 07:03:09;;;;;;;24.50;12.35;;;;;;;8.83;55.34;98858.28;5008383;28;20026;-70
2023/04/28 07:05:35;;;;;;;19.35;11.13;;;;;;;8.93;54.77;98859.06;5009168;28;20109;-70
2023/04/28 07:08:00;;;;;;;19.40;10.68;;;;;;;9.02;55.07;98851.13;5008766;28;20101;-68
2023/04/28 07:10:26;;;;;;;19.88;11.25;;;;;;;9.09;54.38;98846.19;5008694;28;20026;-69
2023/04/28 07:12:51;;;;;;;19.17;10.90;;;;;;;9.21;55.22;98843.16;5008423;28;20021;-69
2023/04/28 07:15:17;;;;;;;21.60;10.95;;;;;;;9.32;54.68;98843.13;5009527;28;20030;-69
2023/04/28 07:17:42;;;;;;;22.45;11.43;;;;;;;9.43;54.56;98841.16;5026885;28;20029;-69
2023/04/28 07:20:08;;;;;;;21.15;11.10;;;;;;;9.49;54.41;98827.19;5009225;28;20034;-69
2023/04/28 07:22:33;;;;;;;20.02;11.38;;;;;;;9.59;53.55;98837.28;4991216;28;20018;-70
2023/04/28 07:24:59;;;;;;;20.42;12.35;;;;;;;9.70;54.05;98834.50;4990532;28;20025;-70
2023/04/28 07:27:24;;;;;;;21.50;11.82;;;;;;;9.79;53.58;98833.63;5008077;28;20038;-68
2023/04/28 07:29:50;;;;;;;20.73;11.27;;;;;;;9.93;53.74;98839.28;5008798;28;20337;-69
2023/04/28 07:32:15;;;;;;;20.55;11.05;;;;;;;10.05;53.85;98836.22;5013862;28;20494;-68
2023/04/28 07:34:41;;;;;;;16.42;9.68;;;;;;;10.16;53.29;98828.75;4990866;28;20030;-69
2023/04/28 07:37:06;;;;;;;15.82;8.35;;;;;;;10.25;53.20;98828.97;5008999;28;20038;-70
2023/04/28 07:39:33;;;;;;;15.27;7.45;;;;;;;10.34;53.69;98827.25;5008441;28;20041;-69
2023/04/28 07:42:00;;;;;;;15.20;8.00;;;;;;;10.45;53.32;98828.03;5008312;28;20049;-70
2023/04/28 07:44:25;;;;;;;13.32;7.32;;;;;;;10.57;52.63;98822.16;5004623;28;20063;-70
2023/04/28 07:46:52;;;;;;;11.45;6.28;;;;;;;10.67;52.50;98822.09;5000503;28;20025;-69
2023/04/28 07:49:17;;;;;;;9.95;6.18;;;;;;;10.79;52.07;98816.22;5009428;28;20038;-69
2023/04/28 07:51:43;;;;;;;10.32;6.07;;;;;;;10.90;52.52;98814.19;5009046;28;20029;-69
2023/04/28 07:54:08;;;;;;;12.88;6.32;;;;;;;10.99;51.57;98815.19;5007887;28;20030;-68
2023/04/28 07:56:34;;;;;;;8.30;5.47;;;;;;;11.09;50.73;98814.25;5008382;28;20022;-69
2023/04/28 07:58:59;;;;;;;9.90;5.57;;;;;;;11.24;51.45;98815.22;5005050;28;20034;-69
2023/04/28 08:01:25;;;;;;;9.57;5.85;;;;;;;11.32;50.88;98823.63;5008229;28;20025;-72
2023/04/28 08:03:50;;;;;;;10.05;5.60;;;;;;;11.41;50.54;98818.28;4991127;28;20042;-70
2023/04/28 08:06:16;;;;;;;9.07;5.78;;;;;;;11.54;50.09;98807.72;5012455;28;20079;-71
2023/04/28 08:08:41;;;;;;;10.02;5.88;;;;;;;11.68;50.10;98807.81;5009529;28;20089;-74
2023/04/28 08:11:07;;;;;;;8.88;5.22;;;;;;;11.77;49.78;98804.13;5011973;28;20040;-73
2023/04/28 08:13:33;;;;;;;9.30;5.15;;;;;;;11.92;49.43;98805.00;5011405;28;20061;-71
2023/04/28 08:16:01;;;;;;;9.93;5.57;;;;;;;12.00;48.87;98811.81;5012259;28;20033;-71
2023/04/28 08:18:27;;;;;;;10.18;5.05;;;;;;;12.05;48.65;98817.22;5011201;28;20052;-69
2023/04/28 08:20:53;;;;;;;8.05;5.30;;;;;;;12.08;47.34;98804.81;5011556;28;20056;-69
2023/04/28 08:23:19;;;;;;;9.73;5.85;;;;;;;12.09;47.04;98804.50;5011100;28;20062;-70
2023/04/28 08:25:46;;;;;;;9.00;5.50;;;;;;;12.15;47.23;98797.03;5012285;28;20034;-69
2023/04/28 08:28:12;;;;;;;7.70;5.32;;;;;;;12.26;46.99;98794.91;5011198;28;20453;-71
2023/04/28 08:30:37;;;;;;;7.90;5.82;;;;;;;12.36;46.58;98794.78;5011610;28;20038;-70
2023/04/28 08:33:03;;;;;;;10.38;6.10;;;;;;;12.42;46.00;98787.25;5010403;28;20058;-70
2023/04/28 08:35:29;;;;;;;12.15;5.70;;;;;;;12.47;46.56;98790.72;5009821;28;20037;-68
2023/04/28 08:37:54;;;;;;;9.32;5.55;;;;;;;12.55;45.62;98791.16;5011889;28;20030;-68
2023/04/28 08:40:20;;;;;;;9.52;5.97;;;;;;;12.61;45.91;98793.53;5008432;28;20037;-69
2023/04/28 08:42:46;;;;;;;6.95;4.47;;;;;;;12.66;45.23;98787.91;5009057;28;20056;-69
2023/04/28 08:45:15;;;;;;;9.35;4.57;;;;;;;12.66;44.58;98792.63;5010118;28;20079;-70
2023/04/28 08:47:44;;;;;;;6.87;4.10;;;;;;;12.69;44.95;98789.25;5011299;28;20030;-69
2023/04/28 08:50:11;;;;;;;9.77;4.68;;;;;;;12.77;45.16;98782.22;5008422;28;20472;-70
2023/04/28 08:52:38;;;;;;;8.73;5.00;;;;;;;12.85;45.61;98775.19;5011272;28;20112;-70
2023/04/28 08:55:08;;;;;;;8.23;4.75;;;;;;;12.94;45.50;98778.91;4992963;28;20040;-69
2023/04/28 08:57:44;;;;;;;7.90;4.50;;;;;;;13.02;44.98;98780.16;5011027;28;20047;-72
2023/04/28 09:00:10;;;;;;;7.30;4.45;;;;;;;13.03;44.01;98770.75;4992891;28;20357;-71
2023/04/28 09:02:36;;;;;;;8.20;4.88;;;;;;;13.00;43.66;98783.19;4993166;28;20024;-72
2023/04/28 09:05:10;;;;;;;7.50;4.63;;;;;;;13.00;43.30;98765.88;5010216;28;20042;-70
2023/04/28 09:07:35;;;;;;;9.52;5.25;;;;;;;13.07;43.46;98769.84;5011230;28;20104;-68
2023/04/28 09:10:23;;;;;;;6.97;4.55;;;;;;;13.08;43.09;98768.72;5010805;28;20131;-67
2023/04/28 09:12:56;;;;;;;8.93;4.85;;;;;;;13.09;42.88;98770.34;5010968;28;20049;-69
2023/04/28 09:15:35;;;;;;;11.23;5.07;;;;;;;13.07;42.63;98756.06;5009233;28;20030;-68
2023/04/28 09:18:02;;;;;;;8.60;4.90;;;;;;;13.10;42.87;98760.13;5011757;28;20380;-67
2023/04/28 09:20:30;;;;;;;7.47;4.90;;;;;;;13.14;42.93;98758.41;5010821;28;20045;-68
2023/04/28 09:23:12;;;;;;;7.85;4.75;;;;;;;13.23;42.91;98759.34;4989565;28;20022;-67
2023/04/28 09:25:37;;;;;;;11.38;5.63;;;;;;;13.31;42.42;98768.00;5052187;28;20053;-68
2023/04/28 09:28:29;;;;;;;10.02;5.28;;;;;;;13.36;43.05;98763.19;5014242;28;20069;-68
2023/04/28 09:30:54;;;;;;;6.30;4.50;;;;;;;13.46;42.86;98753.13;5006213;28;20125;-69
2023/04/28 09:33:20;;;;;;;10.10;5.43;;;;;;;13.54;42.06;98755.16;5009592;28;20514;-69
2023/04/28 09:35:47;;;;;;;9.68;4.55;;;;;;;13.55;42.39;98748.53;5009892;28;20040;-67
2023/04/28 09:38:13;;;;;;;8.38;4.80;;;;;;;13.60;42.51;98740.16;5005982;28;20018;-66
2023/04/28 09:41:05;;;;;;;7.93;4.57;;;;;;;13.73;42.69;98737.66;5011089;28;20037;-68
2023/04/28 09:43:34;;;;;;;9.43;4.63;;;;;;;13.84;42.23;98739.88;5002339;28;20038;-68
2023/04/28 09:46:02;;;;;;;6.82;4.45;;;;;;;13.88;42.17;98722.69;5033901;28;20034;-66
2023/04/28 09:48:35;;;;;;;6.30;4.45;;;;;;;13.96;42.64;98727.47;5010107;28;20025;-68
2023/04/28 09:51:03;;;;;;;7.45;4.60;;;;;;;14.05;42.33;98719.28;4992877;28;20069;-68
2023/04/28 09:53:29;;;;;;;11.02;4.40;;;;;;;14.13;42.38;98713.00;5010075;28;20487;-67
2023/04/28 09:55:57;;;;;;;7.57;4.20;;;;;;;14.27;42.44;98722.03;5010717;28;20095;-67
2023/04/28 09:58:23;;;;;;;8.27;4.72;;;;;;;14.44;42.57;98709.47;5009790;28;20038;-69
2023/04/28 10:00:52;;;;;;;8.18;4.30;;;;;;;14.56;41.91;98715.22;5010052;28;20036;-68
2023/04/28 10:03:23;;;;;;;5.88;3.88;;;;;;;14.65;41.45;98704.22;4992794;28;20120;-69
2023/04/28 10:05:52;;;;;;;7.75;3.80;;;;;;;14.78;41.69;98702.53;5010435;28;20038;-69
2023/04/28 10:08:20;;;;;;;6.53;3.43;;;;;;;14.91;41.23;98694.44;5004706;28;20540;-68
2023/04/28 10:10:53;;;;;;;5.10;3.80;;;;;;;15.03;41.27;98691.88;5007627;28;20042;-69
2023/04/28 10:13:20;;;;;;;6.75;3.47;;;;;;;15.16;40.80;98690.97;5006897;28;20033;-68
2023/04/28 10:15:45;;;;;;;8.18;3.80;;;;;;;15.27;40.11;98697.00;5007797;28;20044;-67
2023/04/28 10:18:15;;;;;;;6.28;3.83;;;;;;;15.39;40.32;98690.81;5008297;28;20054;-68
2023/04/28 10:20:54;;;;;;;;;;;;;;;15.47;39.98;98684.50;5008748;28;20052;-67
2023/04/28 10:23:42;;;;;;;6.77;3.80;;;;;;;15.51;40.31;98678.34;5009983;28;19931;-68
2023/04/28 10:26:13;;;;;;;5.45;3.35;;;;;;;15.51;39.37;98683.84;5011000;28;20265;-69
2023/04/28 10:28:48;;;;;;;8.00;3.65;;;;;;;15.47;38.88;98669.88;5010947;28;20491;-68
2023/04/28 10:31:22;;;;;;;4.57;3.30;;;;;;;15.50;39.45;98680.28;5008046;28;20476;-68
2023/04/28 10:33:48;;;;;;;7.38;3.53;;;;;;;15.55;39.07;98669.06;5010951;28;20037;-68
2023/04/28 10:36:53;;;;;;;5.68;3.53;;;;;;;15.56;39.15;98658.81;5010095;28;20387;-68
2023/04/28 10:39:19;;;;;;;6.40;3.50;;;;;;;15.62;38.90;98669.38;5010141;28;20030;-69
2023/04/28 10:41:48;;;;;;;5.78;3.50;;;;;;;15.65;38.79;98656.88;5010535;28;20030;-71
2023/04/28 10:44:28;;;;;;;7.03;3.40;;;;;;;15.69;38.33;98655.06;5009663;28;20067;-68
2023/04/28 10:47:03;;;;;;;6.10;3.50;;;;;;;15.72;38.47;98643.34;4993053;28;20045;-70
2023/04/28 10:49:53;;;;;;;9.07;3.70;;;;;;;15.84;39.46;98639.13;5009850;28;20041;-69
2023/04/28 10:52:40;;;;;;;7.05;3.58;;;;;;;15.98;39.27;98630.69;5010921;28;20445;-68
2023/04/28 10:55:38;;;;;;;4.95;3.22;;;;;;;16.06;39.05;98627.91;5009327;28;20048;-68
2023/04/28 10:58:19;;;;;;;9.03;3.07;;;;;;;16.07;37.55;98634.25;5007505;28;20031;-68
2023/04/28 11:00:49;;;;;;;8.13;3.75;;;;;;;16.04;36.67;98629.38;5009760;28;20106;-68
2023/04/28 11:03:46;;;;;;;8.77;3.95;;;;;;;15.89;37.11;98622.41;5009810;28;20041;-67
2023/04/28 11:06:24;;;;;;;9.95;4.05;;;;;;;15.91;36.63;98622.88;5010354;28;20022;-67
2023/04/28 11:08:50;;;;;;;5.40;3.25;;;;;;;15.95;37.65;98610.03;5010346;28;20480;-70
2023/04/28 11:11:17;;;;;;;5.00;3.80;;;;;;;15.99;36.02;98611.00;5010138;28;20026;-69
2023/04/28 11:13:45;;;;;;;6.45;4.03;;;;;;;16.00;36.28;98604.31;5009837;28;20561;-68
2023/04/28 11:16:14;;;;;;;6.75;3.80;;;;;;;16.03;37.04;98608.38;5008594;28;20071;-68
2023/04/28 11:18:51;;;;;;;5.13;3.13;;;;;;;16.12;37.54;98600.88;4992172;28;20060;-68
2023/04/28 11:21:21;;;;;;;5.15;3.28;;;;;;;16.28;37.11;98594.81;5010226;28;20021;-68
2023/04/28 11:23:47;;;;;;;6.95;4.00;;;;;;;16.39;37.65;98595.25;5009695;28;20026;-69
2023/04/28 11:26:13;;;;;;;4.95;3.70;;;;;;;16.51;38.14;98601.72;5010076;28;20075;-69